Time;durP1;ratioP1;P1;durP2;ratioP2;P2;SDS_P1;SDS_P2;PMS_P1;PMS_P2;Temp;Humidity;BMP_temperature;BMP_pressure;BME280_temperature;BME280_humidity;BME280_pressure;Samples;Min_cycle;Max_cycle;Signal;HPM_P1;HPM_P2
2022/11/26 02:36:18;;;;;;;28.10;13.03;;;;;;;3.79;100.00;100774.18;1864652;77;22930;-72
2022/11/26 02:38:45;;;;;;;26.23;12.57;;;;;;;3.83;100.00;100662.45;1839680;78;21009;-71
2022/11/26 02:41:13;;;;;;;28.77;13.40;;;;;;;3.85;100.00;100662.70;1805721;78;21005;-73
2022/11/26 02:43:40;;;;;;;29.87;13.93;;;;;;;3.88;100.00;100657.59;1839482;78;20998;-71
2022/11/26 02:46:13;;;;;;;26.20;12.70;;;;;;;3.89;100.00;100651.28;1839673;78;20981;-73
2022/11/26 02:48:45;;;;;;;27.77;11.83;;;;;;;3.89;100.00;100652.62;1797922;80;20970;-73
2022/11/26 02:51:16;;;;;;;22.87;10.77;;;;;;;3.89;100.00;100644.10;1768701;81;21507;-72
2022/11/26 02:53:45;;;;;;;32.73;14.47;;;;;;;3.90;100.00;100619.07;1769026;81;21553;-73
2022/11/26 02:56:25;;;;;;;25.97;12.57;;;;;;;3.91;100.00;100608.75;1768491;81;21038;-71
2022/11/26 02:58:52;;;;;;;29.60;13.07;;;;;;;3.93;100.00;100615.30;1766788;81;21006;-72
2022/11/26 03:01:44;;;;;;;26.10;12.70;;;;;;;3.96;100.00;100615.08;1768414;81;21053;-73
2022/11/26 03:04:19;;;;;;;26.87;12.67;;;;;;;3.96;100.00;100613.25;1769212;81;21061;-73
2022/11/26 03:06:47;;;;;;;23.27;11.70;;;;;;;3.97;100.00;100614.97;1710449;84;21066;-73
2022/11/26 03:09:17;;;;;;;23.23;11.47;;;;;;;3.95;100.00;100619.58;1710446;84;21003;-73
2022/11/26 03:11:44;;;;;;;22.50;11.43;;;;;;;3.95;100.00;100626.27;1710640;84;21149;-72
2022/11/26 03:14:12;;;;;;;23.87;11.13;;;;;;;3.97;100.00;100623.48;1710526;84;21075;-73
2022/11/26 03:16:39;;;;;;;20.37;10.70;;;;;;;3.97;100.00;100624.33;1710244;84;21043;-72
2022/11/26 03:19:06;;;;;;;21.00;10.03;;;;;;;3.99;100.00;100625.06;1710226;83;21559;-72
2022/11/26 03:21:33;;;;;;;23.07;11.37;;;;;;;3.99;100.00;100624.22;1710174;84;21588;-72
2022/11/26 03:24:00;;;;;;;23.20;10.70;;;;;;;4.01;100.00;100634.32;1710522;84;20999;-72
2022/11/26 03:26:27;;;;;;;21.60;11.43;;;;;;;4.01;100.00;100627.63;1710365;84;21122;-73
2022/11/26 03:28:54;;;;;;;22.87;10.87;;;;;;;4.01;100.00;100627.63;1710450;84;21072;-72
2022/11/26 03:31:21;;;;;;;21.87;9.73;;;;;;;4.03;100.00;100636.39;1710382;84;21512;-73
2022/11/26 03:33:48;;;;;;;22.73;10.53;;;;;;;4.03;100.00;100632.88;1710322;83;21575;-72
2022/11/26 03:36:15;;;;;;;21.50;10.50;;;;;;;4.03;100.00;100630.20;1692501;84;21048;-72
2022/11/26 03:38:42;;;;;;;21.10;10.53;;;;;;;4.03;100.00;100636.89;1692107;84;21609;-73
2022/11/26 03:41:09;;;;;;;22.43;10.87;;;;;;;4.02;100.00;100641.40;1692331;85;21100;-73
2022/11/26 03:43:37;;;;;;;21.23;10.60;;;;;;;4.01;100.00;100645.03;1692251;85;21067;-71
2022/11/26 03:46:04;;;;;;;23.60;10.27;;;;;;;4.02;100.00;100648.55;1706397;84;21027;-71
2022/11/26 03:48:31;;;;;;;24.77;10.87;;;;;;;4.01;100.00;100641.02;1710978;84;21077;-72
2022/11/26 03:50:58;;;;;;;19.17;8.07;;;;;;;3.98;100.00;100647.92;1710953;84;21578;-70
2022/11/26 03:53:26;;;;;;;23.40;10.70;;;;;;;3.97;100.00;100644.89;1711033;84;21093;-73
2022/11/26 03:55:53;;;;;;;21.63;10.10;;;;;;;3.97;100.00;100644.89;1710929;84;21109;-73
2022/11/26 03:58:19;;;;;;;24.63;10.30;;;;;;;3.97;100.00;100652.92;1711099;84;21049;-73
2022/11/26 04:00:47;;;;;;;20.50;9.67;;;;;;;3.98;100.00;100650.14;1710963;84;21073;-74
2022/11/26 04:03:15;;;;;;;24.17;10.53;;;;;;;3.97;100.00;100650.25;1752142;79;21032;-71
2022/11/26 04:05:42;;;;;;;18.40;9.30;;;;;;;3.97;100.00;100655.11;1811806;79;21009;-73
2022/11/26 04:08:09;;;;;;;20.97;9.07;;;;;;;4.00;100.00;100660.70;1812195;79;21025;-73
2022/11/26 04:10:36;;;;;;;21.37;11.10;;;;;;;4.01;100.00;100662.42;1812215;79;20997;-72
2022/11/26 04:13:04;;;;;;;20.00;9.73;;;;;;;4.03;100.00;100664.98;1812122;79;21478;-71
2022/11/26 04:15:31;;;;;;;21.77;9.90;;;;;;;4.00;100.00;100656.69;1811865;79;21517;-72
2022/11/26 04:17:58;;;;;;;25.27;10.93;;;;;;;3.99;100.00;100661.69;1812319;79;21000;-71
2022/11/26 04:20:26;;;;;;;20.20;9.90;;;;;;;3.99;100.00;100659.86;1811922;79;21525;-72
2022/11/26 04:22:54;;;;;;;21.07;9.43;;;;;;;3.99;100.00;100665.20;1812226;79;21032;-72
2022/11/26 04:25:21;;;;;;;21.53;9.60;;;;;;;3.98;100.00;100665.31;1811949;79;21048;-72
2022/11/26 04:27:49;;;;;;;20.27;9.20;;;;;;;3.97;100.00;100667.15;1812049;79;21036;-73
2022/11/26 04:30:16;;;;;;;20.83;8.93;;;;;;;3.98;100.00;100666.19;1812137;79;21024;-72
2022/11/26 04:32:43;;;;;;;19.93;9.23;;;;;;;3.96;100.00;100669.94;1812362;79;21001;-71
2022/11/26 04:35:11;;;;;;;21.53;9.50;;;;;;;3.96;100.00;100668.59;1823792;78;20989;-71
2022/11/26 04:37:38;;;;;;;19.37;8.27;;;;;;;3.96;100.00;100676.63;1839315;78;20989;-72
2022/11/26 04:40:07;;;;;;;22.20;9.40;;;;;;;3.97;100.00;100675.66;1804949;78;21526;-72
2022/11/26 04:42:34;;;;;;;19.60;8.50;;;;;;;3.95;100.00;100677.11;1839254;78;21013;-73
2022/11/26 04:45:01;;;;;;;20.03;9.63;;;;;;;3.96;100.00;100677.96;1839429;78;21009;-71
2022/11/26 04:47:28;;;;;;;17.40;8.67;;;;;;;3.93;100.00;100683.53;1838872;78;21037;-73
2022/11/26 04:49:55;;;;;;;20.70;9.50;;;;;;;3.93;100.00;100676.84;1839376;78;21497;-71
2022/11/26 04:52:22;;;;;;;22.50;10.17;;;;;;;3.95;100.00;100688.31;1839236;78;21044;-73
2022/11/26 04:54:49;;;;;;;21.03;10.10;;;;;;;3.91;100.00;100687.68;1839226;78;21504;-72
2022/11/26 04:57:16;;;;;;;21.77;10.03;;;;;;;3.90;100.00;100692.64;1839300;78;20970;-71
2022/11/26 04:59:43;;;;;;;21.50;9.60;;;;;;;3.90;100.00;100696.66;1839479;78;20974;-71
2022/11/26 05:02:10;;;;;;;20.53;9.10;;;;;;;3.90;100.00;100689.13;1839603;78;20985;-73
2022/11/26 05:04:36;;;;;;;21.80;10.53;;;;;;;3.89;100.00;100696.77;1839524;78;20970;-73
2022/11/26 05:07:03;;;;;;;19.83;9.50;;;;;;;3.88;100.00;100690.58;1839290;78;20981;-72
2022/11/26 05:09:31;;;;;;;22.23;8.97;;;;;;;3.87;100.00;100688.84;1839081;78;21009;-72
2022/11/26 05:11:59;;;;;;;19.60;9.00;;;;;;;3.88;100.00;100697.72;1838899;78;20999;-72
2022/11/26 05:14:26;;;;;;;19.70;8.40;;;;;;;3.88;100.00;100700.39;1839290;78;20981;-73
2022/11/26 05:16:53;;;;;;;19.87;8.20;;;;;;;3.87;100.00;100691.53;1839614;78;21017;-73
2022/11/26 05:19:22;;;;;;;18.13;7.63;;;;;;;3.85;100.00;100693.95;1839104;78;21101;-71
2022/11/26 05:21:49;;;;;;;17.13;7.50;;;;;;;3.82;100.00;100702.20;1839672;78;20958;-71
2022/11/26 05:24:16;;;;;;;19.57;8.03;;;;;;;3.81;100.00;100710.72;1839308;78;21487;-72
2022/11/26 05:26:44;;;;;;;17.60;8.73;;;;;;;3.79;100.00;100706.81;1839812;78;21041;-72
2022/11/26 05:29:12;;;;;;;15.90;7.50;;;;;;;3.80;100.00;100713.00;1839811;78;21017;-71
2022/11/26 05:31:39;;;;;;;20.43;9.07;;;;;;;3.80;100.00;100715.19;1841069;78;21009;-72
2022/11/26 05:34:05;;;;;;;21.07;9.17;;;;;;;3.82;100.00;100723.11;1840419;78;21486;-72
2022/11/26 05:36:32;;;;;;;19.87;8.47;;;;;;;3.79;100.00;100720.19;1839289;78;21001;-71
2022/11/26 05:38:59;;;;;;;22.63;9.37;;;;;;;3.79;100.00;100725.53;1839103;78;21032;-72
2022/11/26 05:41:26;;;;;;;16.83;7.67;;;;;;;3.82;100.00;100735.64;1839141;78;21053;-72
2022/11/26 05:43:53;;;;;;;16.87;7.80;;;;;;;3.83;100.00;100733.34;1839041;78;21459;-71
2022/11/26 05:46:20;;;;;;;15.93;7.73;;;;;;;3.82;100.00;100736.48;1839161;78;21064;-72
2022/11/26 05:48:46;;;;;;;18.87;8.50;;;;;;;3.79;100.00;100736.23;1839139;78;21017;-71
2022/11/26 05:51:13;;;;;;;13.37;6.70;;;;;;;3.77;100.00;100735.95;1839263;78;21518;-74
2022/11/26 05:53:41;;;;;;;18.40;7.80;;;;;;;3.79;100.00;100735.39;1839008;78;21028;-72
2022/11/26 05:56:08;;;;;;;15.67;7.70;;;;;;;3.79;100.00;100742.92;1838957;78;21056;-72
2022/11/26 05:58:36;;;;;;;14.03;7.70;;;;;;;3.78;100.00;100745.22;1839287;78;20965;-73
2022/11/26 06:01:08;;;;;;;12.57;6.60;;;;;;;3.78;100.00;100747.89;1838960;78;21029;-72
2022/11/26 06:03:36;;;;;;;16.35;7.60;;;;;;;3.78;100.00;100741.20;1839021;78;20982;-71
2022/11/26 06:06:04;;;;;;;15.20;7.07;;;;;;;3.76;100.00;100740.95;1839217;78;20993;-72
2022/11/26 06:08:32;;;;;;;14.33;7.83;;;;;;;3.75;100.00;100740.11;1839403;78;20997;-78
2022/11/26 06:11:00;;;;;;;15.00;7.50;;;;;;;3.75;100.00;100733.88;1838803;78;21109;-72
2022/11/26 06:13:26;;;;;;;17.30;7.33;;;;;;;3.75;100.00;100737.44;1839198;78;21021;-74
2022/11/26 06:15:57;;;;;;;13.57;6.90;;;;;;;3.77;100.00;100734.62;1839257;78;20997;-75
2022/11/26 06:18:24;;;;;;;15.40;7.73;;;;;;;3.78;100.00;100740.36;1839626;78;21005;-74
2022/11/26 06:20:50;;;;;;;17.03;8.07;;;;;;;3.76;100.00;100739.13;1839482;78;21525;-75
2022/11/26 06:23:18;;;;;;;18.47;8.43;;;;;;;3.77;100.00;100733.28;1839686;78;21033;-74
2022/11/26 06:25:45;;;;;;;17.43;7.70;;;;;;;3.78;100.00;100735.00;1839999;78;21024;-74
2022/11/26 06:28:14;;;;;;;17.73;8.83;;;;;;;3.80;100.00;100743.28;1839923;78;20993;-75
2022/11/26 06:30:45;;;;;;;19.00;9.13;;;;;;;3.83;100.00;100747.56;1839961;78;21127;-76
2022/11/26 06:33:12;;;;;;;18.17;8.30;;;;;;;3.84;100.00;100744.41;1840402;78;21017;-79
2022/11/26 06:35:39;;;;;;;15.30;7.33;;;;;;;3.82;100.00;100748.52;1840258;78;21025;-78
2022/11/26 07:41:17;;;;;;;17.80;9.60;;;;;;;3.81;100.00;100940.79;1803206;79;22922;-74
2022/11/26 07:43:44;;;;;;;18.30;8.53;;;;;;;3.85;100.00;100855.33;1717006;83;21004;-71
2022/11/26 07:46:15;;;;;;;22.20;10.53;;;;;;;3.90;100.00;100851.84;1753702;82;21550;-72
2022/11/26 07:48:42;;;;;;;22.33;11.47;;;;;;;3.95;100.00;100852.38;1750330;82;21032;-72
2022/11/26 07:51:23;;;;;;;23.17;10.73;;;;;;;3.97;100.00;100846.93;1729347;83;21018;-71
2022/11/26 07:53:56;;;;;;;22.00;10.58;;;;;;;3.98;100.00;100849.95;1564388;91;21048;-73
2022/11/26 07:56:26;;;;;;;21.10;10.57;;;;;;;3.99;100.00;100844.99;1578272;89;21090;-72
2022/11/26 07:58:55;;;;;;;21.17;10.50;;;;;;;4.01;100.00;100843.06;1558647;91;21531;-72
2022/11/26 08:03:59;;;;;;;22.00;10.47;;;;;;;4.07;100.00;100851.13;1505058;95;21068;-71
2022/11/26 08:06:28;;;;;;;22.70;9.90;;;;;;;4.07;100.00;100840.42;1519703;94;21589;-71
2022/11/26 08:08:57;;;;;;;20.63;9.30;;;;;;;4.07;100.00;100844.44;1504950;95;21171;-73
2022/11/26 08:11:27;;;;;;;20.10;11.17;;;;;;;4.07;100.00;100845.77;1518534;94;21572;-72
2022/11/26 08:13:57;;;;;;;24.10;12.30;;;;;;;4.09;100.00;100837.15;1504117;95;21103;-72
2022/11/26 08:16:25;;;;;;;19.87;9.33;;;;;;;4.12;100.00;100840.95;1528546;94;21095;-73
2022/11/26 08:18:56;;;;;;;22.77;10.23;;;;;;;4.14;100.00;100833.66;1528972;94;21109;-72
2022/11/26 08:21:23;;;;;;;19.80;9.00;;;;;;;4.14;100.00;100835.88;1527717;93;21128;-74
2022/11/26 08:23:51;;;;;;;19.47;9.00;;;;;;;4.15;100.00;100841.59;1529253;94;21084;-74
2022/11/26 08:26:19;;;;;;;20.67;9.83;;;;;;;4.19;100.00;100840.39;1528806;94;21631;-73
2022/11/26 08:28:46;;;;;;;18.53;9.60;;;;;;;4.23;100.00;100833.48;1528960;94;21103;-74
2022/11/26 08:31:14;;;;;;;20.17;9.57;;;;;;;4.24;100.00;100832.53;1528521;94;21075;-74
2022/11/26 08:33:41;;;;;;;21.43;10.60;;;;;;;4.27;100.00;100832.32;1528967;94;21146;-74
2022/11/26 08:36:08;;;;;;;103.23;29.80;;;;;;;4.30;100.00;100829.39;1528388;94;21107;-74
2022/11/26 08:38:35;;;;;;;30.47;13.67;;;;;;;4.33;100.00;100831.37;1527488;94;21678;-74
2022/11/26 08:41:04;;;;;;;26.67;12.03;;;;;;;4.33;100.00;100823.33;1541157;93;21127;-74
2022/11/26 08:43:33;;;;;;;20.40;9.27;;;;;;;4.37;100.00;100818.61;1545782;91;21151;-74
2022/11/26 08:46:00;;;;;;;18.10;7.67;;;;;;;4.34;100.00;100811.67;1548841;92;21164;-74
2022/11/26 08:48:27;;;;;;;17.93;8.50;;;;;;;4.32;100.00;100814.06;1549384;92;21056;-73
2022/11/26 08:51:03;;;;;;;17.50;8.27;;;;;;;4.26;100.00;100812.70;1610392;88;21509;-74
2022/11/26 08:53:31;;;;;;;16.43;7.83;;;;;;;4.21;100.00;100805.48;1597922;90;21071;-73
2022/11/26 08:56:03;;;;;;;13.57;7.13;;;;;;;4.19;100.00;100808.27;1598255;90;21033;-74
2022/11/26 08:58:36;;;;;;;16.03;7.87;;;;;;;4.18;100.00;100808.41;1608586;89;21189;-71
2022/11/26 20:22:39;;;;;;;15.23;5.90;;;;;;;2.61;100.00;101078.20;1791609;79;21579;-77
2022/11/26 20:25:06;;;;;;;10.40;5.37;;;;;;;2.64;100.00;101080.70;1797757;79;20988;-77
2022/11/26 20:27:33;;;;;;;12.87;5.97;;;;;;;2.63;100.00;101086.48;1799615;79;21469;-76
2022/11/26 20:30:00;;;;;;;11.10;5.50;;;;;;;2.62;100.00;101078.56;1787660;79;21085;-77
2022/11/26 20:32:28;;;;;;;9.40;4.93;;;;;;;2.65;100.00;101085.91;1792319;79;21012;-76
2022/11/26 20:34:56;;;;;;;11.07;5.50;;;;;;;2.65;100.00;101083.25;1801852;79;20991;-77
2022/11/26 20:37:23;;;;;;;10.13;5.17;;;;;;;2.65;100.00;101083.25;1794295;79;21508;-77
2022/11/26 20:39:50;;;;;;;10.77;5.43;;;;;;;2.64;100.00;101080.21;1793632;79;21477;-77
2022/11/26 20:42:17;;;;;;;13.10;5.97;;;;;;;2.66;100.00;101081.45;1796751;79;20996;-77
2022/11/26 20:44:43;;;;;;;9.33;5.03;;;;;;;2.68;100.00;101083.55;1791437;79;21006;-77
2022/11/26 20:47:11;;;;;;;12.53;5.37;;;;;;;2.71;100.00;101084.70;1796397;79;20989;-77
2022/11/26 20:49:41;;;;;;;8.80;5.00;;;;;;;2.70;100.00;101085.64;1788686;79;21502;-76
2022/11/26 20:52:08;;;;;;;9.17;5.03;;;;;;;2.69;100.00;101085.73;1791983;79;21014;-77
2022/11/26 20:54:34;;;;;;;10.90;5.30;;;;;;;2.70;100.00;101090.98;1803440;79;21007;-76
2022/11/26 20:57:05;;;;;;;10.80;4.77;;;;;;;2.72;100.00;101087.73;1791730;79;21014;-76
2022/11/26 20:59:33;;;;;;;11.67;5.10;;;;;;;2.72;100.00;101090.89;1791398;79;21018;-77
2022/11/26 21:02:00;;;;;;;10.17;5.27;;;;;;;2.73;100.00;101088.62;1790775;79;21006;-77
2022/11/26 21:04:27;;;;;;;12.73;5.43;;;;;;;2.75;100.00;101085.38;1799819;79;21456;-76
2022/11/26 21:06:53;;;;;;;10.70;5.07;;;;;;;2.77;100.00;101087.47;1797006;79;21085;-76
2022/11/26 21:09:20;;;;;;;9.30;5.10;;;;;;;2.76;100.00;101082.61;1801492;78;20988;-77
2022/11/26 21:11:47;;;;;;;11.97;5.20;;;;;;;2.76;100.00;101083.95;1799598;79;21023;-76
2022/11/26 21:14:14;;;;;;;10.40;5.43;;;;;;;2.76;100.00;101091.08;1787412;79;21089;-75
2022/11/26 21:16:42;;;;;;;11.70;5.33;;;;;;;2.73;100.00;101085.46;1806771;79;21038;-77
2022/11/26 21:19:11;;;;;;;9.87;5.37;;;;;;;2.74;100.00;101086.31;1791251;79;20999;-76
2022/11/26 21:21:38;;;;;;;11.53;5.17;;;;;;;2.77;100.00;101082.97;1741303;80;21022;-75
2022/11/26 21:24:06;;;;;;;10.00;4.80;;;;;;;2.76;100.00;101080.39;1773983;79;21018;-77
2022/11/26 21:26:34;;;;;;;10.43;5.00;;;;;;;2.74;100.00;101079.15;1768654;79;21534;-77
2022/11/26 21:29:01;;;;;;;10.17;4.57;;;;;;;2.71;100.00;101078.03;1774819;79;21018;-76
2022/11/26 21:31:29;;;;;;;6.77;4.03;;;;;;;2.70;100.00;101080.79;1774960;80;21077;-77
2022/11/26 21:34:04;;;;;;;7.70;4.67;;;;;;;2.69;100.00;101076.39;1758162;80;21092;-77
2022/11/26 21:36:34;;;;;;;7.63;4.60;;;;;;;2.68;100.00;101077.36;1760354;80;21566;-77
2022/11/26 21:39:01;;;;;;;8.00;4.30;;;;;;;2.65;100.00;101082.39;1779601;79;21030;-77
2022/11/26 21:41:28;;;;;;;7.07;4.13;;;;;;;2.62;100.00;101079.91;1769384;79;21037;-76
2022/11/26 21:43:55;;;;;;;6.67;4.00;;;;;;;2.60;100.00;101077.36;1770489;80;21002;-76
2022/11/26 21:46:25;;;;;;;5.87;3.70;;;;;;;2.59;100.00;101075.62;1586830;84;21244;-76
2022/11/26 21:48:54;;;;;;;10.23;5.00;;;;;;;2.61;100.00;101071.53;1585095;89;21087;-76
2022/11/26 21:51:24;;;;;;;8.23;4.23;;;;;;;2.65;100.00;101071.72;1586048;89;21091;-77
2022/11/26 21:53:52;;;;;;;8.53;4.70;;;;;;;2.65;100.00;101075.72;1582938;88;21088;-76
2022/11/26 21:56:25;;;;;;;7.80;4.47;;;;;;;2.64;100.00;101077.54;1581705;89;21087;-78
2022/11/26 21:58:51;;;;;;;5.87;3.98;;;;;;;2.63;100.00;101073.63;1594249;88;21062;-77
2022/11/26 22:01:31;;;;;;;7.90;4.43;;;;;;;2.68;100.00;101073.35;1585151;89;21097;-76
2022/11/26 22:04:01;;;;;;;9.83;4.80;;;;;;;2.69;100.00;101071.05;1576389;88;21103;-77
2022/11/26 22:06:29;;;;;;;8.27;4.60;;;;;;;2.66;100.00;101073.45;1562074;90;21139;-77
2022/11/26 22:08:56;;;;;;;7.23;4.40;;;;;;;2.66;100.00;101076.11;1576905;90;21068;-77
2022/11/26 22:11:26;;;;;;;5.37;3.87;;;;;;;2.64;100.00;101074.88;1598719;88;21115;-76
2022/11/26 22:13:53;;;;;;;7.63;4.30;;;;;;;2.61;100.00;101075.53;1600417;89;21619;-77
2022/11/26 22:16:23;;;;;;;9.07;4.70;;;;;;;2.58;100.00;101072.56;1595851;90;21054;-75
2022/11/26 22:18:51;;;;;;;9.30;4.73;;;;;;;2.57;100.00;101072.20;1616676;88;21539;-77
2022/11/26 22:21:32;;;;;;;8.17;4.00;;;;;;;2.57;100.00;101070.02;1649451;86;21109;-76
2022/11/26 22:24:00;;;;;;;8.10;4.10;;;;;;;2.57;100.00;101074.02;1642608;86;21080;-76
2022/11/26 22:26:27;;;;;;;8.90;4.27;;;;;;;2.58;100.00;101071.23;1613867;89;21006;-76
2022/11/26 22:28:56;;;;;;;8.97;4.13;;;;;;;2.59;100.00;101076.96;1610307;89;21053;-76
2022/11/26 22:31:27;;;;;;;8.17;4.20;;;;;;;2.63;100.00;101078.48;1610687;89;21038;-76
